Terminal Aerodrome Forecast
Issued by NWS

Home | Current Version | Previous Version | Text Only | Print | Product List | Glossary On
Versions: 1 2 3 4 5 6 7 8 9 10 11 12 13 14
000
FTUS45 KRIW 212300
TAFBPI
TAF
KBPI 212327Z 2200/2224 20008KT P6SM -SHRA SCT045 BKN070
     FM220300 VRB06KT P6SM -SHRA SCT035 BKN050
     FM221000 18006KT P6SM VCSH BKN045
     FM221300 VRB06KT P6SM SCT045 BKN150
     FM221800 VRB10G18KT P6SM VCTS SCT060CB BKN100=

USA.gov is the U.S. government's official web portal to all federal, state and local government web resources and services.